الصفحة الرئيسية
METAR-TAF:

METAR-TAF

مطار :

بوريرام, تايلاند

دائرة عرض: 15-13-46N, خط طول: 103-15-04E, ارتفاع: 180 متر

مراقبة الطقس الحالي

تاريخ ووقت الإصدار 58 دقيقة قبل الساعة 09:00UTC
ريح 3 عقدة من الشمال
درجة الحرارة 29°درجة مئوية
الرطوبة 79%
ضغط 1007 hPa
الرؤية 10 كم أو أكثر
غيوم متفرقة على ارتفاع 3000 قدم
ملبد بالغيوم على ارتفاع 9000 قدم

METAR: VTUO 040900Z 36003KT 9999 SCT030 OVC090 29/25 Q1007 NOSIG

زمن: 16:58 (09:58 UTC)

توقعات

تاريخ ووقت الإصدار 4ساعات و 58 دقيقة قبل الساعة 05:00UTC
التوقعات صالحة من04 الساعة 06 UTC إلى 05 الساعة 06 UTC
ريح 6 عقدة من الجنوب الغربي
الرؤية 10 كم أو أكثر
غيوم متفرقة على ارتفاع 3000 قدم
مؤقت
من 04 الساعة 12 UTC إلى 04 الساعة 15 UTC
ريح 15 عقدةمن اتجاهات متغيرة
الرؤية: 4500 متر
غيوم قليلة على ارتفاع 1800 قدم, مزنة ركامية.
غيوم مفككة على ارتفاع 2500 قدم
عاصفة رعدية, مطر

TAF: VTUO 040500Z 0406/0506 22006KT 9999 SCT030 TEMPO 0412/0415 VRB15KT 4500 TSRA FEW018CB BKN025

أرصاد الطقس والتوقعات من أكثر من 4000 مطار (تقارير الطقس للمطار METAR والتنبؤ بالطقس بالمطارTAF).

المحطات المتاحة هي النقط الصفراء والحمراء على الخريطة.

حرك المؤشر فوق النقطة لمعرفة اسم المحطة.

ثم انقر لمعرفة أرصاد وتوقعات الطقس.

لتغيير الخارطة: اضغط على الأزرار الخضراء مع رمز الصليب الأسود للتكبير. على الزر الأخضر مع شرطة للتصغير، أو على الأسهم الخضراء للخرائط المجاورة.


METAR-TAF: